Time;durP1;ratioP1;P1;durP2;ratioP2;P2;SDS_P1;SDS_P2;PMS_P1;PMS_P2;Temp;Humidity;BMP_temperature;BMP_pressure;BME280_temperature;BME280_humidity;BME280_pressure;Samples;Min_cycle;Max_cycle;Signal;HPM_P1;HPM_P2
2021/11/24 00:01:07;;;;;;;56.57;21.33;;;8.20;98.20;;;;;;4994100;28;20456;-69
2021/11/24 00:03:34;;;;;;;54.03;22.63;;;8.20;98.20;;;;;;4993985;28;20454;-69
2021/11/24 00:06:01;;;;;;;55.40;21.37;;;8.20;98.20;;;;;;4993871;28;20448;-69
2021/11/24 00:08:27;;;;;;;55.63;22.97;;;8.20;98.20;;;;;;4993814;28;20503;-69
2021/11/24 00:10:54;;;;;;;51.30;20.80;;;8.20;98.10;;;;;;4993941;28;20453;-69
2021/11/24 00:13:21;;;;;;;54.93;22.57;;;8.20;98.10;;;;;;4993967;28;20435;-69
2021/11/24 00:15:49;;;;;;;55.33;21.10;;;8.20;98.10;;;;;;4993779;28;20452;-69
2021/11/24 00:18:16;;;;;;;46.73;20.40;;;8.20;98.10;;;;;;4993773;28;20525;-69
2021/11/24 00:20:43;;;;;;;51.03;20.33;;;8.20;98.10;;;;;;4993607;28;20831;-70
2021/11/24 00:23:10;;;;;;;48.47;21.07;;;8.20;98.10;;;;;;4993787;28;20939;-69
2021/11/24 00:25:37;;;;;;;60.63;22.70;;;8.20;98.10;;;;;;4993669;28;20821;-69
2021/11/24 00:28:04;;;;;;;72.63;23.80;;;8.30;98.20;;;;;;4993885;28;20491;-69
2021/11/24 00:30:31;;;;;;;63.07;25.13;;;8.30;98.20;;;;;;4993771;28;20451;-69
2021/11/24 00:33:00;;;;;;;64.90;22.80;;;8.30;98.20;;;;;;4993770;28;20444;-69
2021/11/24 00:35:27;;;;;;;62.83;23.80;;;8.20;98.10;;;;;;4993751;28;20448;-69
2021/11/24 00:37:54;;;;;;;66.20;26.07;;;8.30;98.10;;;;;;4993640;28;20483;-69
2021/11/24 00:40:20;;;;;;;64.60;25.80;;;8.30;98.10;;;;;;4993705;28;20453;-69
2021/11/24 00:42:47;;;;;;;64.67;26.13;;;8.30;98.10;;;;;;4993736;28;20437;-69
2021/11/24 00:45:14;;;;;;;61.87;23.80;;;8.30;98.10;;;;;;4993606;28;20458;-69
2021/11/24 00:47:41;;;;;;;57.93;23.10;;;8.20;98.10;;;;;;4993370;28;20518;-69
2021/11/24 00:50:10;;;;;;;62.60;24.07;;;8.20;98.10;;;;;;4993542;28;20934;-69
2021/11/24 00:52:37;;;;;;;81.77;25.83;;;8.20;98.10;;;;;;4993706;28;20459;-69
2021/11/24 00:55:04;;;;;;;63.37;24.10;;;8.20;98.00;;;;;;4993708;28;20433;-69
2021/11/24 00:57:31;;;;;;;72.57;25.20;;;8.20;98.10;;;;;;4993480;28;20451;-68
2021/11/24 00:59:58;;;;;;;62.97;23.07;;;8.20;98.10;;;;;;4995900;28;20460;-69
2021/11/24 01:02:25;;;;;;;69.90;25.60;;;8.30;98.10;;;;;;4996700;28;20486;-69
2021/11/24 01:04:51;;;;;;;67.13;25.43;;;8.20;98.10;;;;;;4996959;28;20455;-69
2021/11/24 01:07:20;;;;;;;62.63;25.10;;;8.20;98.10;;;;;;4997072;28;20498;-69
2021/11/24 01:09:51;;;;;;;62.27;24.40;;;8.30;98.10;;;;;;4996738;28;20468;-69
2021/11/24 01:12:18;;;;;;;68.10;25.17;;;8.30;98.00;;;;;;4996546;28;20832;-69
2021/11/24 01:14:44;;;;;;;70.63;28.07;;;8.30;98.00;;;;;;4996653;28;20448;-69
2021/11/24 01:17:11;;;;;;;67.73;24.70;;;8.30;98.10;;;;;;4996232;28;20467;-69
2021/11/24 01:19:38;;;;;;;79.53;27.60;;;8.30;98.00;;;;;;4996351;28;20491;-69
2021/11/24 01:22:05;;;;;;;80.13;26.10;;;8.30;98.00;;;;;;4997121;28;20448;-69
2021/11/24 01:24:33;;;;;;;84.47;29.00;;;8.30;97.90;;;;;;4996697;28;20815;-69
2021/11/24 01:27:00;;;;;;;83.23;29.37;;;8.30;98.00;;;;;;4996550;28;20488;-69
2021/11/24 01:29:26;;;;;;;73.33;27.70;;;8.30;98.00;;;;;;4996532;28;20468;-69
2021/11/24 01:31:53;;;;;;;86.27;31.00;;;8.30;98.00;;;;;;4996473;28;20815;-69
2021/11/24 01:34:20;;;;;;;89.53;29.70;;;8.30;98.00;;;;;;4996049;28;20939;-69
2021/11/24 01:36:47;;;;;;;98.37;32.27;;;8.30;98.00;;;;;;4996376;28;20444;-69
2021/11/24 01:39:13;;;;;;;100.90;33.00;;;8.30;98.00;;;;;;4996446;28;20475;-69
2021/11/24 01:41:42;;;;;;;84.93;26.93;;;8.30;98.10;;;;;;4996492;28;20445;-69
2021/11/24 01:44:19;;;;;;;82.90;28.33;;;8.30;98.10;;;;;;4996045;28;20942;-69
2021/11/24 01:46:52;;;;;;;101.77;32.90;;;8.30;98.10;;;;;;4996206;28;20432;-69
2021/11/24 01:49:20;;;;;;;100.80;31.63;;;8.30;98.10;;;;;;4996106;28;20878;-69
2021/11/24 01:51:46;;;;;;;82.27;28.47;;;8.30;98.10;;;;;;4995833;28;20938;-69
2021/11/24 01:54:14;;;;;;;79.30;30.20;;;8.30;98.10;;;;;;4996081;28;20444;-69
2021/11/24 01:56:42;;;;;;;94.37;31.67;;;8.30;98.10;;;;;;4995759;28;20977;-69
2021/11/24 01:59:10;;;;;;;87.17;28.67;;;8.30;98.10;;;;;;4996078;28;20468;-69
2021/11/24 02:01:38;;;;;;;91.57;33.00;;;8.40;98.10;;;;;;4995723;28;20951;-69
2021/11/24 02:04:05;;;;;;;81.07;28.40;;;8.30;98.10;;;;;;4995901;28;20455;-69
2021/11/24 02:06:32;;;;;;;102.63;32.63;;;8.30;98.10;;;;;;4995873;28;20448;-69
2021/11/24 02:08:58;;;;;;;95.20;31.67;;;8.30;98.10;;;;;;4995830;28;20498;-69
2021/11/24 02:11:26;;;;;;;81.63;28.83;;;8.40;98.10;;;;;;4994565;28;20961;-69
2021/11/24 02:13:54;;;;;;;92.10;31.43;;;8.30;98.40;;;;;;4995424;28;20947;-69
2021/11/24 02:16:21;;;;;;;91.80;31.93;;;8.40;98.10;;;;;;4995616;28;20451;-70
2021/11/24 02:18:48;;;;;;;89.63;29.23;;;8.40;98.20;;;;;;4995471;28;20471;-69
2021/11/24 02:21:17;;;;;;;80.70;28.83;;;8.30;98.10;;;;;;4995323;28;20491;-69
2021/11/24 02:23:44;;;;;;;105.77;31.43;;;8.30;98.20;;;;;;4995739;28;20472;-69
2021/11/24 02:26:12;;;;;;;99.23;32.23;;;8.30;98.10;;;;;;4995206;28;20953;-69
2021/11/24 02:28:39;;;;;;;113.50;32.70;;;8.40;98.20;;;;;;4995139;28;20487;-69
2021/11/24 02:31:06;;;;;;;92.20;30.37;;;8.40;98.20;;;;;;4995249;28;20460;-69
2021/11/24 02:33:34;;;;;;;113.73;34.90;;;8.40;98.10;;;;;;4995358;28;20457;-69
2021/11/24 02:36:00;;;;;;;89.77;30.20;;;8.30;98.00;;;;;;4995247;28;20475;-69
2021/11/24 02:38:29;;;;;;;110.77;32.73;;;8.30;98.00;;;;;;4995304;28;20831;-69
2021/11/24 02:40:55;;;;;;;101.20;32.50;;;8.30;98.00;;;;;;4995456;28;20448;-71
2021/11/24 02:43:22;;;;;;;89.87;28.87;;;8.30;98.00;;;;;;4995234;28;20452;-70
2021/11/24 02:45:49;;;;;;;102.10;31.00;;;8.30;98.00;;;;;;4995085;28;20463;-70
2021/11/24 02:48:21;;;;;;;105.37;32.10;;;8.30;98.00;;;;;;4994554;28;20488;-69
2021/11/24 02:50:51;;;;;;;106.30;30.30;;;8.30;97.90;;;;;;4995048;28;20436;-69
2021/11/24 02:53:18;;;;;;;88.50;30.30;;;8.30;97.90;;;;;;4995004;28;20448;-69
2021/11/24 02:55:46;;;;;;;93.43;30.57;;;8.30;97.90;;;;;;4994697;28;20810;-69
2021/11/24 02:58:12;;;;;;;116.83;32.77;;;8.30;97.90;;;;;;4995151;28;20468;-69
2021/11/24 03:00:39;;;;;;;111.70;32.60;;;8.30;97.90;;;;;;4994824;28;20452;-69
2021/11/24 03:03:06;;;;;;;114.93;33.23;;;8.30;97.90;;;;;;4995047;28;20437;-69
2021/11/24 03:05:33;;;;;;;107.53;32.87;;;8.40;98.00;;;;;;4994688;28;20448;-69
2021/11/24 03:08:00;;;;;;;99.97;31.10;;;8.40;98.00;;;;;;4994741;28;20934;-69
2021/11/24 03:10:28;;;;;;;107.07;31.10;;;8.40;98.00;;;;;;4994708;28;20455;-69
2021/11/24 03:12:56;;;;;;;113.07;33.80;;;8.40;98.00;;;;;;4994703;28;20499;-69
2021/11/24 03:15:23;;;;;;;100.33;32.03;;;8.40;98.00;;;;;;4994651;28;20961;-69
2021/11/24 03:17:49;;;;;;;117.33;32.70;;;8.30;97.90;;;;;;4994138;28;20993;-69
2021/11/24 03:20:16;;;;;;;118.50;34.40;;;8.40;98.00;;;;;;4994265;28;20464;-69
2021/11/24 03:22:43;;;;;;;118.53;37.03;;;8.40;98.00;;;;;;4994176;28;20453;-69
2021/11/24 03:25:12;;;;;;;102.73;30.67;;;8.30;97.90;;;;;;4994539;28;20428;-69
2021/11/24 03:27:42;;;;;;;82.67;28.67;;;8.40;98.00;;;;;;4994283;28;20836;-69
2021/11/24 03:30:13;;;;;;;91.77;30.30;;;8.30;97.90;;;;;;4994038;28;20938;-69
2021/11/24 03:32:39;;;;;;;88.23;26.90;;;8.40;97.90;;;;;;4994406;28;20446;-69
2021/11/24 03:35:07;;;;;;;69.50;25.87;;;8.40;98.00;;;;;;4994073;28;20813;-69
2021/11/24 03:37:35;;;;;;;59.90;23.20;;;8.40;97.90;;;;;;4994348;28;20440;-69
2021/11/24 03:40:02;;;;;;;66.47;24.27;;;8.30;97.90;;;;;;4994005;28;20938;-69
2021/11/24 03:42:28;;;;;;;62.60;25.67;;;8.40;97.90;;;;;;4994465;28;20454;-69
2021/11/24 03:44:55;;;;;;;58.87;25.40;;;8.40;97.90;;;;;;4994291;28;20460;-69
2021/11/24 03:47:23;;;;;;;57.00;26.63;;;8.30;97.80;;;;;;4994239;28;20452;-69
2021/11/24 03:49:50;;;;;;;58.53;25.20;;;8.30;97.80;;;;;;4994171;28;20464;-69
2021/11/24 03:52:17;;;;;;;53.57;24.57;;;8.30;97.70;;;;;;4994538;28;20452;-69
2021/11/24 03:54:44;;;;;;;61.23;27.23;;;8.30;97.70;;;;;;4993993;28;20452;-69
2021/11/24 03:57:11;;;;;;;55.53;27.17;;;8.40;97.80;;;;;;4994115;28;20797;-69
2021/11/24 03:59:37;;;;;;;56.37;24.77;;;8.30;97.70;;;;;;4994096;28;20478;-69
2021/11/24 04:02:05;;;;;;;57.13;25.73;;;8.40;97.70;;;;;;4993856;28;20459;-69
2021/11/24 04:04:33;;;;;;;55.97;27.30;;;8.40;97.60;;;;;;4993749;28;20448;-69
2021/11/24 04:07:01;;;;;;;57.17;25.70;;;8.30;97.50;;;;;;4993975;28;20939;-69
2021/11/24 04:09:28;;;;;;;62.27;26.13;;;8.40;97.60;;;;;;4993875;28;20492;-69
2021/11/24 04:11:55;;;;;;;58.13;25.47;;;8.30;97.50;;;;;;4994047;28;20452;-69
2021/11/24 04:14:22;;;;;;;51.33;23.70;;;8.40;97.60;;;;;;4993756;28;20463;-69
2021/11/24 04:16:48;;;;;;;66.70;28.30;;;8.40;97.60;;;;;;4993948;28;20814;-69
2021/11/24 04:19:15;;;;;;;54.93;25.43;;;8.30;97.50;;;;;;4993786;28;20551;-69
2021/11/24 04:21:43;;;;;;;62.00;30.03;;;8.30;97.50;;;;;;4993562;28;20439;-69
2021/11/24 04:24:10;;;;;;;60.10;28.00;;;8.30;97.50;;;;;;4993616;28;20907;-69
2021/11/24 04:26:37;;;;;;;56.37;27.20;;;8.40;97.60;;;;;;4993797;28;20816;-69
2021/11/24 04:29:04;;;;;;;59.43;27.87;;;8.30;97.50;;;;;;4993448;28;21009;-69
2021/11/24 04:31:30;;;;;;;60.10;28.90;;;8.30;97.50;;;;;;4993478;28;20811;-69
2021/11/24 04:33:57;;;;;;;60.53;28.00;;;8.30;97.50;;;;;;4994486;28;20452;-69
2021/11/24 04:36:24;;;;;;;58.27;26.77;;;8.40;97.60;;;;;;4997559;28;20458;-69
2021/11/24 04:38:52;;;;;;;80.73;32.80;;;8.30;97.50;;;;;;4997298;28;20476;-69
2021/11/24 04:41:19;;;;;;;59.53;28.27;;;8.40;97.50;;;;;;4997478;28;20467;-69
2021/11/24 04:43:47;;;;;;;65.27;27.30;;;8.40;97.50;;;;;;4997184;28;20450;-69
2021/11/24 04:46:16;;;;;;;68.27;29.50;;;8.40;97.50;;;;;;4997475;28;20443;-69
2021/11/24 04:48:43;;;;;;;60.70;30.00;;;8.40;97.50;;;;;;4997028;28;21001;-69
2021/11/24 04:51:10;;;;;;;64.37;30.50;;;8.40;97.50;;;;;;4997252;28;20448;-69
2021/11/24 04:53:37;;;;;;;70.00;30.07;;;8.40;97.50;;;;;;4997186;28;20546;-69
2021/11/24 04:56:06;;;;;;;66.90;30.43;;;8.40;97.50;;;;;;4997329;28;20895;-69
2021/11/24 04:58:36;;;;;;;64.77;29.20;;;8.40;97.50;;;;;;4996936;28;20468;-69
2021/11/24 05:01:03;;;;;;;61.83;28.70;;;8.40;97.50;;;;;;4996913;28;20898;-69
2021/11/24 05:03:30;;;;;;;65.13;30.63;;;8.30;97.50;;;;;;4997088;28;20815;-69
2021/11/24 05:05:57;;;;;;;65.63;30.77;;;8.30;97.50;;;;;;4997016;28;20444;-69
2021/11/24 05:08:24;;;;;;;64.80;29.40;;;8.40;97.60;;;;;;4997147;28;20491;-68
2021/11/24 05:10:50;;;;;;;62.40;31.20;;;8.40;97.50;;;;;;4996903;28;20459;-69
2021/11/24 05:13:19;;;;;;;58.40;28.87;;;8.30;97.50;;;;;;4996924;28;20436;-69
2021/11/24 05:15:46;;;;;;;46.47;25.93;;;8.30;97.50;;;;;;4996436;28;20942;-69
2021/11/24 05:18:17;;;;;;;51.83;28.37;;;8.30;97.50;;;;;;4997050;28;20885;-69
2021/11/24 05:20:45;;;;;;;45.50;24.70;;;8.30;97.50;;;;;;4996614;28;20460;-69
2021/11/24 05:23:15;;;;;;;45.93;26.60;;;8.40;97.50;;;;;;4996260;28;20454;-76
2021/11/24 05:25:42;;;;;;;46.57;25.00;;;8.40;97.50;;;;;;4996202;28;20550;-75
2021/11/24 05:28:08;;;;;;;52.00;27.67;;;8.40;97.40;;;;;;4996365;28;20488;-75
2021/11/24 05:30:37;;;;;;;45.33;25.07;;;8.40;97.40;;;;;;4996248;28;20445;-75
2021/11/24 05:33:03;;;;;;;46.43;25.30;;;8.30;97.30;;;;;;4996338;28;20448;-75
2021/11/24 05:35:30;;;;;;;48.50;25.10;;;8.40;97.40;;;;;;4996399;28;20452;-75
2021/11/24 05:37:59;;;;;;;41.10;23.40;;;8.30;97.30;;;;;;4995955;28;21053;-75
2021/11/24 05:40:25;;;;;;;45.20;23.93;;;8.30;97.30;;;;;;4996364;28;20436;-75
2021/11/24 05:42:52;;;;;;;42.07;25.17;;;8.40;97.40;;;;;;4996327;28;20435;-75
2021/11/24 05:45:34;;;;;;;41.60;24.07;;;8.40;97.30;;;;;;4995985;28;20931;-75
2021/11/24 05:48:06;;;;;;;41.10;23.40;;;8.30;97.30;;;;;;4996133;28;20471;-75
2021/11/24 05:50:33;;;;;;;38.90;22.80;;;8.30;97.30;;;;;;4996049;28;20443;-75
2021/11/24 05:52:59;;;;;;;40.27;23.33;;;8.30;97.30;;;;;;4996123;28;20458;-75
2021/11/24 05:55:26;;;;;;;39.90;22.80;;;8.30;97.20;;;;;;4995949;28;20448;-75
2021/11/24 05:57:53;;;;;;;33.70;21.30;;;8.30;97.20;;;;;;4996140;28;20472;-75
2021/11/24 06:00:20;;;;;;;38.17;24.43;;;8.40;97.30;;;;;;4996090;28;20440;-76
2021/11/24 06:02:47;;;;;;;45.23;24.47;;;8.40;97.20;;;;;;4996150;28;20449;-76
2021/11/24 06:05:15;;;;;;;36.67;21.77;;;8.40;97.10;;;;;;4997006;28;20462;-76
2021/11/24 06:07:42;;;;;;;38.83;23.97;;;8.30;97.10;;;;;;4996620;28;20445;-76
2021/11/24 06:10:11;;;;;;;35.63;19.97;;;8.30;97.10;;;;;;4996113;28;20483;-76
2021/11/24 06:12:38;;;;;;;36.30;21.50;;;8.30;97.10;;;;;;4996285;28;20456;-76
2021/11/24 06:15:07;;;;;;;35.47;22.20;;;8.30;97.10;;;;;;4996004;28;20452;-76
2021/11/24 06:17:34;;;;;;;35.70;22.57;;;8.30;97.10;;;;;;4995704;28;20436;-75
2021/11/24 06:20:01;;;;;;;37.67;22.03;;;8.30;97.10;;;;;;4995390;28;20456;-76
2021/11/24 06:22:29;;;;;;;40.97;24.13;;;8.30;97.00;;;;;;4995784;28;20452;-76
2021/11/24 06:24:56;;;;;;;37.90;23.43;;;8.30;97.00;;;;;;4995911;28;20448;-75
2021/11/24 06:27:23;;;;;;;44.47;23.80;;;8.30;97.00;;;;;;4995844;28;20447;-75
2021/11/24 06:29:49;;;;;;;37.53;21.90;;;8.30;97.00;;;;;;4995474;28;20495;-75
2021/11/24 06:32:16;;;;;;;40.47;22.47;;;8.30;97.00;;;;;;4995573;28;20459;-75
2021/11/24 06:34:43;;;;;;;37.83;22.97;;;8.30;97.00;;;;;;4995344;28;20454;-76
2021/11/24 06:37:10;;;;;;;39.63;22.87;;;8.30;97.00;;;;;;4995188;28;20902;-76
2021/11/24 06:39:38;;;;;;;37.03;22.40;;;8.30;97.00;;;;;;4995399;28;20464;-76
2021/11/24 06:42:05;;;;;;;35.90;23.10;;;8.30;96.90;;;;;;4995226;28;20822;-76
2021/11/24 06:44:32;;;;;;;42.60;24.37;;;8.30;96.90;;;;;;4994968;28;20969;-76
2021/11/24 06:46:58;;;;;;;37.67;20.93;;;8.30;96.90;;;;;;4995161;28;20463;-76
2021/11/24 06:49:25;;;;;;;42.80;26.00;;;8.30;96.90;;;;;;4994987;28;20491;-76
2021/11/24 06:51:52;;;;;;;33.50;23.00;;;8.30;96.90;;;;;;4994726;28;20923;-76
2021/11/24 06:54:19;;;;;;;37.63;23.50;;;8.30;96.80;;;;;;4995651;28;20559;-75
2021/11/24 06:56:48;;;;;;;36.90;23.17;;;8.30;96.80;;;;;;4994416;28;20436;-75
2021/11/24 06:59:15;;;;;;;38.03;22.47;;;8.40;96.80;;;;;;4994822;28;20978;-75
2021/11/24 07:01:43;;;;;;;31.73;21.17;;;8.40;96.80;;;;;;4994722;28;20452;-75
2021/11/24 07:04:10;;;;;;;35.00;22.43;;;8.40;96.80;;;;;;4995859;28;20543;-75
2021/11/24 07:06:37;;;;;;;33.97;22.67;;;8.40;96.80;;;;;;4994317;28;20448;-75
2021/11/24 07:09:09;;;;;;;35.90;24.10;;;8.30;96.70;;;;;;4994306;28;20879;-75
2021/11/24 07:11:36;;;;;;;33.20;22.07;;;8.30;96.70;;;;;;4994668;28;20440;-75
2021/11/24 07:14:04;;;;;;;43.07;22.87;;;8.30;96.70;;;;;;4995001;28;20452;-75
2021/11/24 07:16:31;;;;;;;35.70;23.30;;;8.30;96.70;;;;;;4994497;28;20818;-75
2021/11/24 07:18:58;;;;;;;40.20;23.87;;;8.30;96.70;;;;;;4994531;28;20468;-75
2021/11/24 07:21:25;;;;;;;37.20;23.90;;;8.30;96.70;;;;;;4994136;28;20471;-75
2021/11/24 07:23:52;;;;;;;35.70;22.87;;;8.30;96.80;;;;;;4994302;28;20452;-75
2021/11/24 07:26:18;;;;;;;39.80;23.47;;;8.30;96.80;;;;;;4993987;28;20452;-76
2021/11/24 07:28:45;;;;;;;39.63;23.37;;;8.30;96.80;;;;;;4994227;28;20464;-76
2021/11/24 07:31:13;;;;;;;38.97;24.47;;;8.30;96.80;;;;;;4994248;28;20448;-76
2021/11/24 07:33:40;;;;;;;41.53;23.10;;;8.30;96.80;;;;;;4993856;28;20986;-76
2021/11/24 07:36:07;;;;;;;35.97;23.40;;;8.30;96.80;;;;;;4994266;28;20456;-76
2021/11/24 07:38:34;;;;;;;41.50;25.53;;;8.40;96.90;;;;;;4994259;28;20833;-75
2021/11/24 07:41:00;;;;;;;35.87;22.00;;;8.40;96.90;;;;;;4994230;28;20460;-76
2021/11/24 07:43:27;;;;;;;38.20;21.80;;;8.40;96.90;;;;;;4994219;28;20823;-76
2021/11/24 07:45:54;;;;;;;44.10;24.73;;;8.40;96.90;;;;;;4994024;28;20448;-76
2021/11/24 07:48:24;;;;;;;34.90;23.03;;;8.40;96.80;;;;;;4994015;28;20479;-75
2021/11/24 07:50:50;;;;;;;35.47;24.03;;;8.40;96.90;;;;;;4994189;28;20914;-75
2021/11/24 07:53:17;;;;;;;34.70;23.20;;;8.40;96.80;;;;;;4994020;28;20802;-75
2021/11/24 07:55:44;;;;;;;36.30;22.53;;;8.50;96.90;;;;;;4994122;28;20428;-75
2021/11/24 07:58:12;;;;;;;39.10;23.40;;;8.50;96.90;;;;;;4993797;28;20986;-75
2021/11/24 08:00:39;;;;;;;43.37;23.17;;;8.50;96.90;;;;;;4994018;28;20476;-75
2021/11/24 08:03:05;;;;;;;35.27;23.40;;;8.50;96.90;;;;;;4993987;28;20453;-75
2021/11/24 08:05:34;;;;;;;35.10;22.63;;;8.50;96.90;;;;;;4994033;28;20815;-75
2021/11/24 08:08:00;;;;;;;35.87;21.73;;;8.50;96.80;;;;;;4994012;28;20477;-75
2021/11/24 08:10:28;;;;;;;32.17;21.70;;;8.50;96.80;;;;;;4997807;28;20832;-75
2021/11/24 08:12:54;;;;;;;33.17;22.50;;;8.60;96.80;;;;;;4998051;28;20796;-76
2021/11/24 08:15:21;;;;;;;34.77;22.80;;;8.60;96.70;;;;;;4997950;28;20467;-75
2021/11/24 08:17:48;;;;;;;40.43;24.20;;;8.60;96.70;;;;;;4997779;28;20511;-76
2021/11/24 08:20:15;;;;;;;36.27;23.10;;;8.60;96.60;;;;;;4997776;28;20456;-76
2021/11/24 08:22:43;;;;;;;34.70;20.60;;;8.60;96.60;;;;;;4997948;28;20455;-76
2021/11/24 08:25:10;;;;;;;38.73;24.73;;;8.60;96.60;;;;;;4998036;28;20456;-76
2021/11/24 08:27:37;;;;;;;29.87;19.97;;;8.60;96.50;;;;;;4997717;28;20436;-76
2021/11/24 08:30:06;;;;;;;39.63;25.03;;;8.70;96.50;;;;;;4997630;28;20495;-76
2021/11/24 08:32:33;;;;;;;34.47;23.57;;;8.70;96.50;;;;;;4997797;28;20535;-76
2021/11/24 08:35:00;;;;;;;38.60;23.50;;;8.70;96.50;;;;;;4997655;28;20471;-76
2021/11/24 08:37:27;;;;;;;42.20;26.50;;;8.80;96.50;;;;;;4997465;28;20849;-75
2021/11/24 08:39:55;;;;;;;37.73;23.97;;;8.80;96.50;;;;;;4997388;28;20464;-76
2021/11/24 08:42:25;;;;;;;40.97;23.37;;;8.80;96.50;;;;;;4997456;28;20452;-77
2021/11/24 08:44:52;;;;;;;34.13;23.87;;;8.80;96.40;;;;;;4997323;28;20436;-76
2021/11/24 08:47:19;;;;;;;37.00;23.83;;;8.80;96.70;;;;;;4997552;28;20447;-75
2021/11/24 08:49:46;;;;;;;41.40;23.67;;;8.90;96.30;;;;;;4997623;28;20496;-76
2021/11/24 08:52:13;;;;;;;37.60;25.00;;;8.90;96.20;;;;;;4997233;28;20938;-76
2021/11/24 08:54:39;;;;;;;39.00;24.20;;;8.90;96.20;;;;;;4997200;28;20444;-76
2021/11/24 08:57:08;;;;;;;39.00;24.67;;;8.90;96.10;;;;;;4997311;28;20823;-76
2021/11/24 08:59:35;;;;;;;38.60;25.87;;;9.00;96.10;;;;;;4997060;28;20466;-76
2021/11/24 09:02:01;;;;;;;35.40;23.67;;;9.00;96.00;;;;;;4997047;28;20444;-76
2021/11/24 09:04:28;;;;;;;35.80;23.50;;;9.00;95.90;;;;;;4996899;28;20460;-76
2021/11/24 09:06:55;;;;;;;29.77;20.80;;;9.10;95.90;;;;;;4997038;28;20439;-76
2021/11/24 09:09:22;;;;;;;36.20;24.13;;;9.20;95.90;;;;;;4996426;28;20484;-76
2021/11/24 09:11:48;;;;;;;40.13;24.83;;;9.20;95.80;;;;;;4996914;28;20514;-76
2021/11/24 09:14:19;;;;;;;42.37;27.37;;;9.20;95.70;;;;;;4996826;28;20452;-76
2021/11/24 09:16:46;;;;;;;36.03;24.70;;;9.30;95.60;;;;;;4996758;28;20498;-76
2021/11/24 09:19:12;;;;;;;40.00;24.57;;;9.30;95.50;;;;;;4996194;28;20474;-76
2021/11/24 09:21:39;;;;;;;35.03;24.07;;;9.40;95.40;;;;;;4996744;28;20432;-76
2021/11/24 09:24:12;;;;;;;45.03;28.23;;;9.40;95.30;;;;;;4996598;28;20549;-76
2021/11/24 09:26:42;;;;;;;42.80;26.63;;;9.50;95.30;;;;;;4996361;28;20969;-76
2021/11/24 09:29:10;;;;;;;46.80;30.80;;;9.50;95.20;;;;;;4996764;28;20469;-76
2021/11/24 09:31:39;;;;;;;47.30;26.83;;;9.60;95.10;;;;;;4996644;28;20452;-75
2021/11/24 09:34:06;;;;;;;48.37;29.87;;;9.60;95.10;;;;;;4996516;28;20448;-75
2021/11/24 09:36:34;;;;;;;45.93;28.47;;;9.70;95.10;;;;;;4996234;28;20453;-75
2021/11/24 09:39:01;;;;;;;42.97;29.90;;;9.70;95.00;;;;;;4996353;28;20910;-75
2021/11/24 09:41:32;;;;;;;43.23;26.90;;;9.80;94.90;;;;;;4995992;28;20436;-75
2021/11/24 09:44:02;;;;;;;39.80;27.47;;;9.80;94.80;;;;;;4996270;28;20436;-75
2021/11/24 09:46:29;;;;;;;37.77;26.20;;;9.90;94.80;;;;;;4996166;28;20535;-75
2021/11/24 09:48:59;;;;;;;35.50;26.83;;;9.90;94.60;;;;;;4996108;28;20815;-75
2021/11/24 09:51:27;;;;;;;41.00;26.77;;;10.00;93.90;;;;;;4996084;28;20817;-76
2021/11/24 09:53:54;;;;;;;42.03;26.60;;;10.00;93.80;;;;;;4997044;28;20507;-76
2021/11/24 09:56:21;;;;;;;34.00;23.87;;;10.10;93.70;;;;;;4996046;28;20444;-75
2021/11/24 09:58:48;;;;;;;39.00;25.60;;;10.10;93.60;;;;;;4995976;28;20834;-76
2021/11/24 10:01:15;;;;;;;39.67;26.13;;;10.20;93.40;;;;;;4995961;28;20801;-76
2021/11/24 10:03:42;;;;;;;37.10;25.27;;;10.20;93.30;;;;;;4995650;28;20444;-76
2021/11/24 10:06:11;;;;;;;40.83;27.73;;;10.30;93.20;;;;;;4995546;28;20487;-76
2021/11/24 10:08:38;;;;;;;37.80;27.27;;;10.40;93.10;;;;;;4995659;28;20468;-76
2021/11/24 10:11:05;;;;;;;37.77;26.07;;;10.40;93.00;;;;;;4995664;28;20850;-76
2021/11/24 10:13:32;;;;;;;50.13;30.40;;;10.50;93.00;;;;;;4995845;28;20445;-76
2021/11/24 10:15:58;;;;;;;40.23;26.33;;;10.60;92.80;;;;;;4995772;28;20819;-76
2021/11/24 10:18:28;;;;;;;38.83;26.10;;;10.60;92.70;;;;;;4995590;28;20555;-76
2021/11/24 10:20:57;;;;;;;41.80;28.60;;;10.70;92.50;;;;;;4995444;28;20467;-76
2021/11/24 10:23:34;;;;;;;44.90;28.90;;;10.70;92.30;;;;;;4995821;28;20452;-76
2021/11/24 10:26:19;;;;;;;43.60;28.80;;;10.70;92.20;;;;;;4995655;28;20428;-76
2021/11/24 10:28:52;;;;;;;48.17;30.30;;;10.80;92.10;;;;;;4995592;28;20476;-76
2021/11/24 10:31:37;;;;;;;46.33;29.83;;;10.80;91.90;;;;;;4994526;28;20530;-76
2021/11/24 10:34:13;;;;;;;43.23;27.43;;;10.80;91.80;;;;;;4995096;28;20982;-76
2021/11/24 10:36:51;;;;;;;43.10;28.13;;;10.90;91.70;;;;;;4995383;28;20428;-76
2021/11/24 10:39:20;;;;;;;44.10;28.10;;;11.00;91.70;;;;;;4995231;28;20491;-76
2021/11/24 10:41:48;;;;;;;40.00;28.00;;;11.00;91.50;;;;;;4995237;28;20449;-76
2021/11/24 10:44:26;;;;;;;41.33;28.03;;;11.00;91.40;;;;;;4995736;28;20530;-76
2021/11/24 10:46:54;;;;;;;38.23;26.07;;;11.10;91.40;;;;;;4995294;28;20437;-76
2021/11/24 10:49:31;;;;;;;39.70;25.30;;;11.10;91.20;;;;;;4995406;28;20499;-76
2021/11/24 10:51:57;;;;;;;36.47;24.70;;;11.20;91.10;;;;;;4995134;28;20439;-76
2021/11/24 10:54:27;;;;;;;40.53;27.80;;;11.20;90.90;;;;;;4994998;28;20440;-76
2021/11/24 10:57:09;;;;;;;39.03;24.80;;;11.20;90.80;;;;;;4995001;28;20452;-77
2021/11/24 10:59:38;;;;;;;37.80;25.50;;;11.20;90.70;;;;;;4995235;28;20805;-76
2021/11/24 11:02:35;;;;;;;38.80;26.30;;;11.20;90.60;;;;;;4995097;28;20471;-75
2021/11/24 11:05:16;;;;;;;37.73;24.67;;;11.30;90.60;;;;;;4934968;29;20439;-75
2021/11/24 11:08:03;;;;;;;34.90;24.40;;;11.40;90.70;;;;;;4986703;28;20470;-75
2021/11/24 11:10:33;;;;;;;38.27;26.20;;;11.50;90.70;;;;;;4994771;28;20468;-75
2021/11/24 11:13:02;;;;;;;40.40;26.90;;;11.60;90.50;;;;;;4995849;28;20506;-75
2021/11/24 11:15:33;;;;;;;40.33;27.33;;;11.60;90.20;;;;;;4994655;28;20448;-75
2021/11/24 11:18:08;;;;;;;37.10;25.67;;;11.70;90.00;;;;;;4994441;28;20508;-75
2021/11/24 11:20:37;;;;;;;41.23;26.97;;;11.70;89.80;;;;;;4994637;28;20462;-75
2021/11/24 11:23:10;;;;;;;35.63;23.80;;;11.70;89.50;;;;;;4994466;28;20463;-75
2021/11/24 11:25:42;;;;;;;35.87;24.70;;;11.70;89.30;;;;;;4994567;28;20487;-75
2021/11/24 11:28:09;;;;;;;35.17;23.63;;;11.70;89.00;;;;;;4994202;28;20468;-75
2021/11/24 11:30:41;;;;;;;36.37;21.90;;;11.70;89.00;;;;;;4994098;28;21065;-75
2021/11/24 11:33:08;;;;;;;33.27;24.60;;;11.70;89.00;;;;;;4994244;28;20444;-75
2021/11/24 11:35:36;;;;;;;32.20;22.47;;;11.70;88.90;;;;;;4994281;28;20460;-75
2021/11/24 11:38:03;;;;;;;32.53;22.80;;;11.70;88.90;;;;;;4994109;28;20467;-75
2021/11/24 11:40:30;;;;;;;30.40;21.03;;;11.70;88.70;;;;;;4994030;28;20966;-76
2021/11/24 11:43:01;;;;;;;26.33;19.97;;;11.60;88.40;;;;;;4994211;28;20470;-76
2021/11/24 11:45:31;;;;;;;35.33;22.93;;;11.70;88.50;;;;;;4994447;28;20459;-76
2021/11/24 11:48:01;;;;;;;28.57;21.40;;;11.70;88.70;;;;;;4994978;28;20482;-75
2021/11/24 11:50:55;;;;;;;27.90;21.47;;;11.70;88.70;;;;;;4994202;28;20468;-70
2021/11/24 11:53:26;;;;;;;29.43;21.53;;;11.70;88.60;;;;;;4992946;28;20828;-69
2021/11/24 11:56:16;;;;;;;28.63;21.43;;;11.70;88.30;;;;;;4994510;28;20436;-69
2021/11/24 11:58:59;;;;;;;29.70;21.80;;;11.70;87.90;;;;;;4990366;28;20485;-70
2021/11/24 12:01:29;;;;;;;33.53;21.93;;;11.70;87.70;;;;;;4994123;28;20435;-70
2021/11/24 12:04:07;;;;;;;27.87;21.17;;;11.70;87.30;;;;;;4993669;28;20942;-70
2021/11/24 12:06:37;;;;;;;30.47;21.80;;;11.80;87.30;;;;;;4994039;28;20447;-70
2021/11/24 12:09:28;;;;;;;29.47;21.00;;;11.80;87.20;;;;;;4994518;28;20487;-70
2021/11/24 12:12:22;;;;;;;31.97;23.03;;;11.80;87.30;;;;;;4993811;28;20830;-70
2021/11/24 12:15:16;;;;;;;28.73;19.83;;;11.80;87.40;;;;;;4993778;28;20433;-70
2021/11/24 12:17:55;;;;;;;28.57;21.90;;;11.80;87.50;;;;;;4991395;28;20467;-70
2021/11/24 12:20:41;;;;;;;25.63;19.50;;;11.90;87.60;;;;;;4993657;28;20491;-70
2021/11/24 12:23:26;;;;;;;26.63;19.90;;;12.00;87.20;;;;;;4993696;28;20796;-70
2021/11/24 12:25:55;;;;;;;29.50;21.07;;;11.90;86.60;;;;;;4994298;28;20531;-70
2021/11/24 12:28:24;;;;;;;27.80;20.20;;;11.90;86.60;;;;;;4993909;28;20469;-70
2021/11/24 12:31:07;;;;;;;27.37;20.50;;;12.00;86.70;;;;;;4993736;28;20522;-70
2021/11/24 12:33:43;;;;;;;25.80;18.70;;;12.00;86.30;;;;;;4993870;28;20500;-70
2021/11/24 12:36:12;;;;;;;24.37;17.90;;;12.00;85.60;;;;;;4994143;28;20422;-70
2021/11/24 12:38:42;;;;;;;24.10;17.77;;;12.00;85.60;;;;;;4993745;28;20498;-70
2021/11/24 12:41:11;;;;;;;25.30;17.00;;;11.90;85.30;;;;;;4993748;28;20440;-70